sensor_id;sensor_type;location;lat;lon;timestamp;P1;durP1;ratioP1;P2;durP2;ratioP2
15990;SDS011;8100;50.994;4.538;2022-08-19T00:02:00;6.38;;;4.03;;
15990;SDS011;8100;50.994;4.538;2022-08-19T00:04:48;7.53;;;4.70;;
15990;SDS011;8100;50.994;4.538;2022-08-19T00:07:36;6.53;;;4.28;;
15990;SDS011;8100;50.994;4.538;2022-08-19T00:10:23;6.80;;;4.13;;
15990;SDS011;8100;50.994;4.538;2022-08-19T00:13:11;7.25;;;4.70;;
15990;SDS011;8100;50.994;4.538;2022-08-19T00:15:51;7.75;;;4.95;;
15990;SDS011;8100;50.994;4.538;2022-08-19T00:18:37;7.32;;;4.55;;
15990;SDS011;8100;50.994;4.538;2022-08-19T00:21:26;10.23;;;5.20;;
15990;SDS011;8100;50.994;4.538;2022-08-19T00:24:14;7.82;;;4.95;;
15990;SDS011;8100;50.994;4.538;2022-08-19T00:27:00;9.73;;;5.60;;
15990;SDS011;8100;50.994;4.538;2022-08-19T00:29:46;9.30;;;5.00;;
15990;SDS011;8100;50.994;4.538;2022-08-19T00:32:31;8.15;;;5.45;;
15990;SDS011;8100;50.994;4.538;2022-08-19T00:35:19;9.80;;;6.07;;
15990;SDS011;8100;50.994;4.538;2022-08-19T00:38:08;10.63;;;6.10;;
15990;SDS011;8100;50.994;4.538;2022-08-19T00:40:53;13.38;;;6.85;;
15990;SDS011;8100;50.994;4.538;2022-08-19T00:43:42;12.00;;;6.88;;
15990;SDS011;8100;50.994;4.538;2022-08-19T00:46:27;10.40;;;6.03;;
15990;SDS011;8100;50.994;4.538;2022-08-19T00:49:14;11.25;;;6.70;;
15990;SDS011;8100;50.994;4.538;2022-08-19T00:52:06;12.70;;;7.15;;
15990;SDS011;8100;50.994;4.538;2022-08-19T00:55:07;11.68;;;6.55;;
15990;SDS011;8100;50.994;4.538;2022-08-19T00:57:58;14.00;;;7.75;;
15990;SDS011;8100;50.994;4.538;2022-08-19T01:00:47;14.98;;;7.60;;
15990;SDS011;8100;50.994;4.538;2022-08-19T01:03:34;15.88;;;7.82;;
15990;SDS011;8100;50.994;4.538;2022-08-19T01:06:07;14.18;;;7.72;;
15990;SDS011;8100;50.994;4.538;2022-08-19T01:08:55;14.38;;;7.72;;
15990;SDS011;8100;50.994;4.538;2022-08-19T01:11:43;17.10;;;7.88;;
15990;SDS011;8100;50.994;4.538;2022-08-19T01:14:31;19.00;;;8.73;;
15990;SDS011;8100;50.994;4.538;2022-08-19T01:17:19;16.00;;;8.18;;
15990;SDS011;8100;50.994;4.538;2022-08-19T01:20:09;16.98;;;8.55;;
15990;SDS011;8100;50.994;4.538;2022-08-19T01:23:01;17.95;;;8.90;;
15990;SDS011;8100;50.994;4.538;2022-08-19T01:25:51;18.63;;;9.70;;
15990;SDS011;8100;50.994;4.538;2022-08-19T01:28:40;18.67;;;8.82;;
15990;SDS011;8100;50.994;4.538;2022-08-19T01:31:28;20.02;;;9.57;;
15990;SDS011;8100;50.994;4.538;2022-08-19T01:34:15;18.38;;;9.43;;
15990;SDS011;8100;50.994;4.538;2022-08-19T01:37:05;19.83;;;9.40;;
15990;SDS011;8100;50.994;4.538;2022-08-19T01:39:57;17.77;;;8.82;;
15990;SDS011;8100;50.994;4.538;2022-08-19T01:42:44;20.77;;;9.50;;
15990;SDS011;8100;50.994;4.538;2022-08-19T01:45:32;19.13;;;9.20;;
15990;SDS011;8100;50.994;4.538;2022-08-19T01:48:20;20.23;;;10.07;;
15990;SDS011;8100;50.994;4.538;2022-08-19T01:51:09;17.10;;;9.05;;
15990;SDS011;8100;50.994;4.538;2022-08-19T01:53:57;21.55;;;10.35;;
15990;SDS011;8100;50.994;4.538;2022-08-19T01:56:45;20.52;;;9.48;;
15990;SDS011;8100;50.994;4.538;2022-08-19T01:59:31;18.85;;;9.63;;
15990;SDS011;8100;50.994;4.538;2022-08-19T02:02:19;20.35;;;9.90;;
15990;SDS011;8100;50.994;4.538;2022-08-19T02:05:05;18.75;;;9.15;;
15990;SDS011;8100;50.994;4.538;2022-08-19T02:07:53;23.95;;;10.52;;
15990;SDS011;8100;50.994;4.538;2022-08-19T02:10:41;21.25;;;10.00;;
15990;SDS011;8100;50.994;4.538;2022-08-19T02:13:31;21.95;;;10.15;;
15990;SDS011;8100;50.994;4.538;2022-08-19T02:16:18;20.90;;;10.18;;
15990;SDS011;8100;50.994;4.538;2022-08-19T02:19:05;19.40;;;10.40;;
15990;SDS011;8100;50.994;4.538;2022-08-19T02:21:53;21.85;;;10.23;;
15990;SDS011;8100;50.994;4.538;2022-08-19T02:24:40;23.52;;;10.10;;
15990;SDS011;8100;50.994;4.538;2022-08-19T02:27:11;19.80;;;10.13;;
15990;SDS011;8100;50.994;4.538;2022-08-19T02:29:58;20.33;;;9.88;;
15990;SDS011;8100;50.994;4.538;2022-08-19T02:32:46;20.85;;;9.77;;
15990;SDS011;8100;50.994;4.538;2022-08-19T02:35:31;21.23;;;9.63;;
15990;SDS011;8100;50.994;4.538;2022-08-19T02:38:19;22.35;;;9.85;;
15990;SDS011;8100;50.994;4.538;2022-08-19T02:41:13;20.13;;;9.60;;
15990;SDS011;8100;50.994;4.538;2022-08-19T02:44:00;20.33;;;9.38;;
15990;SDS011;8100;50.994;4.538;2022-08-19T02:46:51;16.70;;;8.35;;
15990;SDS011;8100;50.994;4.538;2022-08-19T02:49:27;20.17;;;8.75;;
15990;SDS011;8100;50.994;4.538;2022-08-19T02:52:13;18.92;;;8.98;;
15990;SDS011;8100;50.994;4.538;2022-08-19T02:55:00;20.20;;;9.95;;
15990;SDS011;8100;50.994;4.538;2022-08-19T02:57:27;18.65;;;9.57;;
15990;SDS011;8100;50.994;4.538;2022-08-19T03:00:15;21.25;;;9.50;;
15990;SDS011;8100;50.994;4.538;2022-08-19T03:03:04;17.83;;;8.60;;
15990;SDS011;8100;50.994;4.538;2022-08-19T03:05:51;16.88;;;8.63;;
15990;SDS011;8100;50.994;4.538;2022-08-19T03:08:48;18.27;;;9.20;;
15990;SDS011;8100;50.994;4.538;2022-08-19T03:11:34;20.05;;;9.05;;
15990;SDS011;8100;50.994;4.538;2022-08-19T03:14:22;18.17;;;9.10;;
15990;SDS011;8100;50.994;4.538;2022-08-19T03:17:09;17.52;;;8.52;;
15990;SDS011;8100;50.994;4.538;2022-08-19T03:19:56;16.58;;;8.50;;
15990;SDS011;8100;50.994;4.538;2022-08-19T03:22:43;17.95;;;8.35;;
15990;SDS011;8100;50.994;4.538;2022-08-19T03:25:29;15.57;;;7.97;;
15990;SDS011;8100;50.994;4.538;2022-08-19T03:28:16;19.92;;;8.73;;
15990;SDS011;8100;50.994;4.538;2022-08-19T03:31:06;20.88;;;9.05;;
15990;SDS011;8100;50.994;4.538;2022-08-19T03:33:54;17.10;;;7.95;;
15990;SDS011;8100;50.994;4.538;2022-08-19T03:36:43;15.77;;;7.60;;
15990;SDS011;8100;50.994;4.538;2022-08-19T03:39:31;16.92;;;7.97;;
15990;SDS011;8100;50.994;4.538;2022-08-19T03:42:18;17.20;;;8.07;;
15990;SDS011;8100;50.994;4.538;2022-08-19T03:45:06;16.15;;;7.75;;
15990;SDS011;8100;50.994;4.538;2022-08-19T03:47:36;18.92;;;8.07;;
15990;SDS011;8100;50.994;4.538;2022-08-19T03:50:22;16.55;;;7.28;;
15990;SDS011;8100;50.994;4.538;2022-08-19T03:53:11;14.70;;;7.28;;
15990;SDS011;8100;50.994;4.538;2022-08-19T03:55:56;12.77;;;6.75;;
15990;SDS011;8100;50.994;4.538;2022-08-19T03:58:45;15.02;;;7.38;;
15990;SDS011;8100;50.994;4.538;2022-08-19T04:01:33;13.68;;;6.68;;
15990;SDS011;8100;50.994;4.538;2022-08-19T04:04:20;16.02;;;6.97;;
15990;SDS011;8100;50.994;4.538;2022-08-19T04:07:08;15.30;;;7.07;;
15990;SDS011;8100;50.994;4.538;2022-08-19T04:09:57;14.20;;;7.47;;
15990;SDS011;8100;50.994;4.538;2022-08-19T04:12:43;15.70;;;6.55;;
15990;SDS011;8100;50.994;4.538;2022-08-19T04:15:31;12.70;;;6.63;;
15990;SDS011;8100;50.994;4.538;2022-08-19T04:18:13;17.83;;;7.20;;
15990;SDS011;8100;50.994;4.538;2022-08-19T04:21:00;14.43;;;6.53;;
15990;SDS011;8100;50.994;4.538;2022-08-19T04:23:45;17.55;;;6.65;;
15990;SDS011;8100;50.994;4.538;2022-08-19T04:26:35;11.75;;;6.13;;
15990;SDS011;8100;50.994;4.538;2022-08-19T04:29:04;13.40;;;6.30;;
15990;SDS011;8100;50.994;4.538;2022-08-19T04:31:53;11.93;;;6.00;;
15990;SDS011;8100;50.994;4.538;2022-08-19T04:34:41;13.13;;;5.80;;
15990;SDS011;8100;50.994;4.538;2022-08-19T04:37:27;13.38;;;6.22;;
15990;SDS011;8100;50.994;4.538;2022-08-19T04:40:18;13.65;;;6.18;;
15990;SDS011;8100;50.994;4.538;2022-08-19T04:43:25;13.35;;;5.82;;
15990;SDS011;8100;50.994;4.538;2022-08-19T04:45:52;10.30;;;5.25;;
15990;SDS011;8100;50.994;4.538;2022-08-19T04:48:38;11.25;;;6.10;;
15990;SDS011;8100;50.994;4.538;2022-08-19T04:51:26;10.15;;;5.78;;
15990;SDS011;8100;50.994;4.538;2022-08-19T04:54:15;12.95;;;5.63;;
15990;SDS011;8100;50.994;4.538;2022-08-19T04:57:04;10.73;;;5.10;;
15990;SDS011;8100;50.994;4.538;2022-08-19T04:59:54;10.88;;;5.32;;
15990;SDS011;8100;50.994;4.538;2022-08-19T05:02:42;8.77;;;4.32;;
15990;SDS011;8100;50.994;4.538;2022-08-19T05:05:29;10.68;;;5.32;;
15990;SDS011;8100;50.994;4.538;2022-08-19T05:08:18;13.50;;;5.05;;
15990;SDS011;8100;50.994;4.538;2022-08-19T05:11:07;8.77;;;4.95;;
15990;SDS011;8100;50.994;4.538;2022-08-19T05:13:56;10.68;;;4.72;;
15990;SDS011;8100;50.994;4.538;2022-08-19T05:16:27;8.55;;;4.60;;
15990;SDS011;8100;50.994;4.538;2022-08-19T05:19:12;7.65;;;4.20;;
15990;SDS011;8100;50.994;4.538;2022-08-19T05:22:17;9.77;;;4.70;;
15990;SDS011;8100;50.994;4.538;2022-08-19T05:25:19;7.50;;;3.95;;
15990;SDS011;8100;50.994;4.538;2022-08-19T05:28:08;7.50;;;4.63;;
15990;SDS011;8100;50.994;4.538;2022-08-19T05:30:38;9.60;;;4.32;;
15990;SDS011;8100;50.994;4.538;2022-08-19T05:33:25;7.35;;;4.30;;
15990;SDS011;8100;50.994;4.538;2022-08-19T05:36:13;6.90;;;3.72;;
15990;SDS011;8100;50.994;4.538;2022-08-19T05:38:58;8.40;;;4.55;;
15990;SDS011;8100;50.994;4.538;2022-08-19T05:41:46;9.35;;;4.10;;
15990;SDS011;8100;50.994;4.538;2022-08-19T05:44:34;8.43;;;3.72;;
15990;SDS011;8100;50.994;4.538;2022-08-19T05:47:24;7.65;;;3.60;;
15990;SDS011;8100;50.994;4.538;2022-08-19T05:50:11;7.53;;;3.55;;
15990;SDS011;8100;50.994;4.538;2022-08-19T05:52:56;4.88;;;3.17;;
15990;SDS011;8100;50.994;4.538;2022-08-19T05:55:44;7.03;;;3.25;;
15990;SDS011;8100;50.994;4.538;2022-08-19T05:58:31;5.53;;;3.33;;
15990;SDS011;8100;50.994;4.538;2022-08-19T06:01:17;7.85;;;3.15;;
15990;SDS011;8100;50.994;4.538;2022-08-19T06:04:05;6.72;;;3.22;;
15990;SDS011;8100;50.994;4.538;2022-08-19T06:06:54;6.05;;;3.30;;
15990;SDS011;8100;50.994;4.538;2022-08-19T06:09:41;4.90;;;2.92;;
15990;SDS011;8100;50.994;4.538;2022-08-19T06:12:27;7.93;;;3.28;;
15990;SDS011;8100;50.994;4.538;2022-08-19T06:15:12;5.55;;;3.13;;
15990;SDS011;8100;50.994;4.538;2022-08-19T06:17:59;7.22;;;3.03;;
15990;SDS011;8100;50.994;4.538;2022-08-19T06:20:46;5.60;;;2.63;;
15990;SDS011;8100;50.994;4.538;2022-08-19T06:23:35;6.32;;;2.80;;
15990;SDS011;8100;50.994;4.538;2022-08-19T06:26:05;5.75;;;3.03;;
15990;SDS011;8100;50.994;4.538;2022-08-19T06:28:51;5.20;;;2.85;;
15990;SDS011;8100;50.994;4.538;2022-08-19T06:31:40;7.57;;;2.85;;
15990;SDS011;8100;50.994;4.538;2022-08-19T06:34:30;4.88;;;2.65;;
15990;SDS011;8100;50.994;4.538;2022-08-19T06:37:19;5.30;;;2.88;;
15990;SDS011;8100;50.994;4.538;2022-08-19T06:40:00;5.82;;;2.65;;
15990;SDS011;8100;50.994;4.538;2022-08-19T06:42:47;5.10;;;3.00;;
15990;SDS011;8100;50.994;4.538;2022-08-19T06:45:36;6.05;;;3.15;;
15990;SDS011;8100;50.994;4.538;2022-08-19T06:48:23;8.60;;;3.30;;
15990;SDS011;8100;50.994;4.538;2022-08-19T06:51:11;4.13;;;2.88;;
15990;SDS011;8100;50.994;4.538;2022-08-19T06:54:00;6.88;;;2.90;;
15990;SDS011;8100;50.994;4.538;2022-08-19T06:56:48;7.20;;;3.00;;
15990;SDS011;8100;50.994;4.538;2022-08-19T06:59:34;5.63;;;3.08;;
15990;SDS011;8100;50.994;4.538;2022-08-19T07:02:08;5.38;;;2.85;;
15990;SDS011;8100;50.994;4.538;2022-08-19T07:04:53;6.18;;;3.22;;
15990;SDS011;8100;50.994;4.538;2022-08-19T07:07:42;6.88;;;2.90;;
15990;SDS011;8100;50.994;4.538;2022-08-19T07:10:28;5.18;;;2.80;;
15990;SDS011;8100;50.994;4.538;2022-08-19T07:13:04;5.95;;;2.70;;
15990;SDS011;8100;50.994;4.538;2022-08-19T07:15:51;5.05;;;2.60;;
15990;SDS011;8100;50.994;4.538;2022-08-19T07:18:38;6.05;;;3.13;;
15990;SDS011;8100;50.994;4.538;2022-08-19T07:21:25;5.35;;;2.60;;
15990;SDS011;8100;50.994;4.538;2022-08-19T07:24:14;6.32;;;3.05;;
15990;SDS011;8100;50.994;4.538;2022-08-19T07:26:52;6.47;;;2.83;;
15990;SDS011;8100;50.994;4.538;2022-08-19T07:29:47;6.85;;;2.67;;
15990;SDS011;8100;50.994;4.538;2022-08-19T07:32:35;6.47;;;2.63;;
15990;SDS011;8100;50.994;4.538;2022-08-19T07:35:20;5.30;;;2.97;;
15990;SDS011;8100;50.994;4.538;2022-08-19T07:38:07;5.07;;;2.78;;
15990;SDS011;8100;50.994;4.538;2022-08-19T07:40:52;5.00;;;2.72;;
15990;SDS011;8100;50.994;4.538;2022-08-19T07:43:40;8.13;;;3.30;;
15990;SDS011;8100;50.994;4.538;2022-08-19T07:46:10;5.80;;;2.78;;
15990;SDS011;8100;50.994;4.538;2022-08-19T07:48:57;4.70;;;2.47;;
15990;SDS011;8100;50.994;4.538;2022-08-19T07:51:44;4.85;;;2.85;;
15990;SDS011;8100;50.994;4.538;2022-08-19T07:54:33;4.40;;;2.33;;
15990;SDS011;8100;50.994;4.538;2022-08-19T07:57:20;5.85;;;2.58;;
15990;SDS011;8100;50.994;4.538;2022-08-19T08:00:06;4.38;;;2.22;;
15990;SDS011;8100;50.994;4.538;2022-08-19T08:02:49;4.45;;;2.50;;
15990;SDS011;8100;50.994;4.538;2022-08-19T08:05:35;5.68;;;2.20;;
15990;SDS011;8100;50.994;4.538;2022-08-19T08:08:40;4.78;;;2.22;;
15990;SDS011;8100;50.994;4.538;2022-08-19T08:11:44;3.88;;;2.53;;
15990;SDS011;8100;50.994;4.538;2022-08-19T08:14:35;3.88;;;2.35;;
15990;SDS011;8100;50.994;4.538;2022-08-19T08:17:25;5.05;;;2.50;;
15990;SDS011;8100;50.994;4.538;2022-08-19T08:20:15;4.07;;;2.35;;
15990;SDS011;8100;50.994;4.538;2022-08-19T08:23:01;4.45;;;2.25;;
15990;SDS011;8100;50.994;4.538;2022-08-19T08:26:06;3.85;;;2.20;;
15990;SDS011;8100;50.994;4.538;2022-08-19T08:28:52;4.07;;;2.30;;
15990;SDS011;8100;50.994;4.538;2022-08-19T08:31:40;4.00;;;2.13;;
15990;SDS011;8100;50.994;4.538;2022-08-19T08:34:29;3.50;;;1.65;;
15990;SDS011;8100;50.994;4.538;2022-08-19T08:37:17;4.55;;;1.80;;
15990;SDS011;8100;50.994;4.538;2022-08-19T08:40:03;2.90;;;1.80;;
15990;SDS011;8100;50.994;4.538;2022-08-19T08:42:54;3.22;;;1.70;;
15990;SDS011;8100;50.994;4.538;2022-08-19T08:45:45;5.88;;;1.90;;
15990;SDS011;8100;50.994;4.538;2022-08-19T08:48:38;5.80;;;1.73;;
15990;SDS011;8100;50.994;4.538;2022-08-19T08:51:27;3.97;;;1.55;;
15990;SDS011;8100;50.994;4.538;2022-08-19T08:54:20;3.58;;;1.80;;
15990;SDS011;8100;50.994;4.538;2022-08-19T08:56:54;3.78;;;1.73;;
15990;SDS011;8100;50.994;4.538;2022-08-19T08:59:43;4.43;;;1.52;;
15990;SDS011;8100;50.994;4.538;2022-08-19T09:02:30;2.78;;;1.58;;
15990;SDS011;8100;50.994;4.538;2022-08-19T09:05:17;3.38;;;1.90;;
15990;SDS011;8100;50.994;4.538;2022-08-19T09:08:07;1.73;;;1.48;;
15990;SDS011;8100;50.994;4.538;2022-08-19T09:10:59;2.65;;;1.60;;
15990;SDS011;8100;50.994;4.538;2022-08-19T09:13:51;2.35;;;1.50;;
15990;SDS011;8100;50.994;4.538;2022-08-19T09:16:46;2.22;;;1.55;;
15990;SDS011;8100;50.994;4.538;2022-08-19T09:19:32;3.63;;;1.80;;
15990;SDS011;8100;50.994;4.538;2022-08-19T09:22:20;2.90;;;1.83;;
15990;SDS011;8100;50.994;4.538;2022-08-19T09:25:08;2.47;;;1.77;;
15990;SDS011;8100;50.994;4.538;2022-08-19T09:27:57;4.32;;;1.83;;
15990;SDS011;8100;50.994;4.538;2022-08-19T09:30:46;4.00;;;1.80;;
15990;SDS011;8100;50.994;4.538;2022-08-19T09:33:34;3.17;;;1.85;;
15990;SDS011;8100;50.994;4.538;2022-08-19T09:36:20;3.00;;;1.85;;
15990;SDS011;8100;50.994;4.538;2022-08-19T09:39:07;2.28;;;1.63;;
15990;SDS011;8100;50.994;4.538;2022-08-19T09:41:53;3.30;;;2.08;;
15990;SDS011;8100;50.994;4.538;2022-08-19T09:44:31;2.50;;;1.88;;
15990;SDS011;8100;50.994;4.538;2022-08-19T09:47:17;2.88;;;1.90;;
15990;SDS011;8100;50.994;4.538;2022-08-19T09:50:05;4.00;;;2.00;;
15990;SDS011;8100;50.994;4.538;2022-08-19T09:52:52;3.15;;;1.60;;
15990;SDS011;8100;50.994;4.538;2022-08-19T09:55:41;3.72;;;2.00;;
15990;SDS011;8100;50.994;4.538;2022-08-19T09:58:27;2.65;;;1.60;;
15990;SDS011;8100;50.994;4.538;2022-08-19T10:01:19;3.70;;;1.90;;
15990;SDS011;8100;50.994;4.538;2022-08-19T10:04:06;3.35;;;1.80;;
15990;SDS011;8100;50.994;4.538;2022-08-19T10:06:55;2.72;;;1.92;;
15990;SDS011;8100;50.994;4.538;2022-08-19T10:09:42;4.00;;;2.03;;
15990;SDS011;8100;50.994;4.538;2022-08-19T10:12:27;5.97;;;1.92;;
15990;SDS011;8100;50.994;4.538;2022-08-19T10:15:15;4.82;;;1.98;;
15990;SDS011;8100;50.994;4.538;2022-08-19T10:18:06;2.95;;;1.80;;
15990;SDS011;8100;50.994;4.538;2022-08-19T10:21:01;3.30;;;1.70;;
15990;SDS011;8100;50.994;4.538;2022-08-19T10:23:41;4.72;;;1.80;;
15990;SDS011;8100;50.994;4.538;2022-08-19T10:26:30;2.72;;;1.80;;
15990;SDS011;8100;50.994;4.538;2022-08-19T10:29:20;2.65;;;1.75;;
15990;SDS011;8100;50.994;4.538;2022-08-19T10:31:47;4.00;;;1.70;;
15990;SDS011;8100;50.994;4.538;2022-08-19T10:34:27;3.05;;;1.70;;
15990;SDS011;8100;50.994;4.538;2022-08-19T10:37:13;3.47;;;1.73;;
15990;SDS011;8100;50.994;4.538;2022-08-19T10:39:50;2.47;;;1.60;;
15990;SDS011;8100;50.994;4.538;2022-08-19T10:42:36;4.05;;;1.65;;
15990;SDS011;8100;50.994;4.538;2022-08-19T10:45:05;1.95;;;1.40;;
15990;SDS011;8100;50.994;4.538;2022-08-19T10:47:53;3.20;;;1.75;;
15990;SDS011;8100;50.994;4.538;2022-08-19T10:50:40;3.55;;;1.65;;
15990;SDS011;8100;50.994;4.538;2022-08-19T10:53:43;3.75;;;1.63;;
15990;SDS011;8100;50.994;4.538;2022-08-19T10:56:31;2.33;;;1.75;;
15990;SDS011;8100;50.994;4.538;2022-08-19T10:59:35;4.47;;;1.60;;
15990;SDS011;8100;50.994;4.538;2022-08-19T11:02:22;2.72;;;1.75;;
15990;SDS011;8100;50.994;4.538;2022-08-19T11:04:49;3.78;;;1.90;;
15990;SDS011;8100;50.994;4.538;2022-08-19T11:07:38;1.75;;;1.33;;
15990;SDS011;8100;50.994;4.538;2022-08-19T11:10:06;2.65;;;1.60;;
15990;SDS011;8100;50.994;4.538;2022-08-19T11:12:54;2.90;;;1.60;;
15990;SDS011;8100;50.994;4.538;2022-08-19T11:15:41;3.90;;;1.80;;
15990;SDS011;8100;50.994;4.538;2022-08-19T11:18:26;2.22;;;1.58;;
15990;SDS011;8100;50.994;4.538;2022-08-19T11:21:12;2.40;;;1.40;;
15990;SDS011;8100;50.994;4.538;2022-08-19T11:24:07;1.85;;;1.48;;
15990;SDS011;8100;50.994;4.538;2022-08-19T11:26:54;2.85;;;1.40;;
15990;SDS011;8100;50.994;4.538;2022-08-19T11:29:47;4.45;;;1.55;;
15990;SDS011;8100;50.994;4.538;2022-08-19T11:32:14;2.00;;;1.25;;
15990;SDS011;8100;50.994;4.538;2022-08-19T11:35:02;2.08;;;1.40;;
15990;SDS011;8100;50.994;4.538;2022-08-19T11:37:48;3.80;;;1.70;;
15990;SDS011;8100;50.994;4.538;2022-08-19T11:40:36;5.20;;;1.80;;
15990;SDS011;8100;50.994;4.538;2022-08-19T11:43:06;1.95;;;1.40;;
15990;SDS011;8100;50.994;4.538;2022-08-19T11:45:52;5.35;;;1.67;;
15990;SDS011;8100;50.994;4.538;2022-08-19T11:48:38;4.00;;;1.73;;
15990;SDS011;8100;50.994;4.538;2022-08-19T11:51:24;3.50;;;1.73;;
15990;SDS011;8100;50.994;4.538;2022-08-19T11:54:10;2.45;;;1.48;;
15990;SDS011;8100;50.994;4.538;2022-08-19T11:56:58;3.42;;;1.63;;
15990;SDS011;8100;50.994;4.538;2022-08-19T11:59:49;2.45;;;1.60;;
15990;SDS011;8100;50.994;4.538;2022-08-19T12:02:36;4.38;;;1.55;;
15990;SDS011;8100;50.994;4.538;2022-08-19T12:05:22;2.40;;;1.70;;
15990;SDS011;8100;50.994;4.538;2022-08-19T12:08:08;1.70;;;1.33;;
15990;SDS011;8100;50.994;4.538;2022-08-19T12:10:57;1.92;;;1.27;;
15990;SDS011;8100;50.994;4.538;2022-08-19T12:13:45;2.00;;;1.17;;
15990;SDS011;8100;50.994;4.538;2022-08-19T12:16:33;2.13;;;1.42;;
15990;SDS011;8100;50.994;4.538;2022-08-19T12:19:00;3.22;;;1.08;;
15990;SDS011;8100;50.994;4.538;2022-08-19T12:21:30;1.67;;;1.45;;
15990;SDS011;8100;50.994;4.538;2022-08-19T12:24:17;4.55;;;1.60;;
15990;SDS011;8100;50.994;4.538;2022-08-19T12:26:59;1.98;;;1.15;;
15990;SDS011;8100;50.994;4.538;2022-08-19T12:29:47;2.83;;;1.17;;
15990;SDS011;8100;50.994;4.538;2022-08-19T12:32:15;3.47;;;1.48;;
15990;SDS011;8100;50.994;4.538;2022-08-19T12:35:00;3.22;;;1.50;;
15990;SDS011;8100;50.994;4.538;2022-08-19T12:37:47;3.60;;;1.63;;
15990;SDS011;8100;50.994;4.538;2022-08-19T12:40:33;2.22;;;1.60;;
15990;SDS011;8100;50.994;4.538;2022-08-19T12:43:15;4.20;;;1.38;;
15990;SDS011;8100;50.994;4.538;2022-08-19T12:45:43;2.58;;;1.50;;
15990;SDS011;8100;50.994;4.538;2022-08-19T12:48:29;3.88;;;1.38;;
15990;SDS011;8100;50.994;4.538;2022-08-19T12:51:16;2.75;;;1.65;;
15990;SDS011;8100;50.994;4.538;2022-08-19T12:54:05;3.25;;;1.70;;
15990;SDS011;8100;50.994;4.538;2022-08-19T12:56:51;3.05;;;1.83;;
15990;SDS011;8100;50.994;4.538;2022-08-19T12:59:37;4.35;;;2.10;;
15990;SDS011;8100;50.994;4.538;2022-08-19T13:02:24;4.78;;;2.08;;
15990;SDS011;8100;50.994;4.538;2022-08-19T13:05:12;4.53;;;2.40;;
15990;SDS011;8100;50.994;4.538;2022-08-19T13:08:00;5.90;;;2.50;;
15990;SDS011;8100;50.994;4.538;2022-08-19T13:10:47;3.95;;;2.22;;
15990;SDS011;8100;50.994;4.538;2022-08-19T13:13:33;3.60;;;2.00;;
15990;SDS011;8100;50.994;4.538;2022-08-19T13:16:18;3.72;;;1.88;;
15990;SDS011;8100;50.994;4.538;2022-08-19T13:19:06;3.30;;;2.00;;
15990;SDS011;8100;50.994;4.538;2022-08-19T13:21:52;2.90;;;1.90;;
15990;SDS011;8100;50.994;4.538;2022-08-19T13:24:39;3.03;;;1.77;;
15990;SDS011;8100;50.994;4.538;2022-08-19T13:27:25;3.30;;;2.00;;
15990;SDS011;8100;50.994;4.538;2022-08-19T13:30:11;3.70;;;1.90;;
15990;SDS011;8100;50.994;4.538;2022-08-19T13:33:17;3.55;;;1.80;;
15990;SDS011;8100;50.994;4.538;2022-08-19T13:36:06;4.30;;;1.80;;
15990;SDS011;8100;50.994;4.538;2022-08-19T13:38:52;1.90;;;1.40;;
15990;SDS011;8100;50.994;4.538;2022-08-19T13:41:43;3.45;;;1.77;;
15990;SDS011;8100;50.994;4.538;2022-08-19T13:44:31;2.08;;;1.42;;
15990;SDS011;8100;50.994;4.538;2022-08-19T13:47:17;1.98;;;1.50;;
15990;SDS011;8100;50.994;4.538;2022-08-19T13:50:03;1.65;;;1.10;;
15990;SDS011;8100;50.994;4.538;2022-08-19T13:52:51;1.92;;;1.15;;
15990;SDS011;8100;50.994;4.538;2022-08-19T13:55:37;2.05;;;1.13;;
15990;SDS011;8100;50.994;4.538;2022-08-19T13:58:24;1.33;;;0.90;;
15990;SDS011;8100;50.994;4.538;2022-08-19T14:01:10;1.63;;;1.00;;
15990;SDS011;8100;50.994;4.538;2022-08-19T14:03:57;2.35;;;1.00;;
15990;SDS011;8100;50.994;4.538;2022-08-19T14:06:43;3.13;;;1.10;;
15990;SDS011;8100;50.994;4.538;2022-08-19T14:09:31;3.55;;;1.30;;
15990;SDS011;8100;50.994;4.538;2022-08-19T14:12:18;1.30;;;1.10;;
15990;SDS011;8100;50.994;4.538;2022-08-19T14:15:06;1.30;;;1.10;;
15990;SDS011;8100;50.994;4.538;2022-08-19T14:17:38;2.22;;;1.20;;
15990;SDS011;8100;50.994;4.538;2022-08-19T14:20:25;4.57;;;1.35;;
15990;SDS011;8100;50.994;4.538;2022-08-19T14:23:13;2.97;;;0.90;;
15990;SDS011;8100;50.994;4.538;2022-08-19T14:25:42;3.60;;;2.10;;
15990;SDS011;8100;50.994;4.538;2022-08-19T14:28:29;1.65;;;1.00;;
15990;SDS011;8100;50.994;4.538;2022-08-19T14:30:56;1.17;;;0.98;;
15990;SDS011;8100;50.994;4.538;2022-08-19T14:33:42;0.98;;;0.90;;
15990;SDS011;8100;50.994;4.538;2022-08-19T14:36:27;0.63;;;0.60;;
15990;SDS011;8100;50.994;4.538;2022-08-19T14:39:15;0.73;;;0.70;;
15990;SDS011;8100;50.994;4.538;2022-08-19T14:42:05;1.15;;;0.80;;
15990;SDS011;8100;50.994;4.538;2022-08-19T14:44:56;5.82;;;1.58;;
15990;SDS011;8100;50.994;4.538;2022-08-19T14:47:42;2.03;;;0.85;;
15990;SDS011;8100;50.994;4.538;2022-08-19T14:50:29;1.00;;;0.70;;
15990;SDS011;8100;50.994;4.538;2022-08-19T14:53:15;2.33;;;0.70;;
15990;SDS011;8100;50.994;4.538;2022-08-19T14:56:01;0.85;;;0.70;;
15990;SDS011;8100;50.994;4.538;2022-08-19T14:58:55;1.40;;;0.70;;
15990;SDS011;8100;50.994;4.538;2022-08-19T15:01:44;0.68;;;0.40;;
15990;SDS011;8100;50.994;4.538;2022-08-19T15:04:31;0.30;;;0.30;;
15990;SDS011;8100;50.994;4.538;2022-08-19T15:07:04;0.63;;;0.55;;
15990;SDS011;8100;50.994;4.538;2022-08-19T15:09:52;1.98;;;0.57;;
15990;SDS011;8100;50.994;4.538;2022-08-19T15:12:27;0.50;;;0.50;;
15990;SDS011;8100;50.994;4.538;2022-08-19T15:15:17;0.30;;;0.30;;
15990;SDS011;8100;50.994;4.538;2022-08-19T15:18:03;0.55;;;0.45;;
15990;SDS011;8100;50.994;4.538;2022-08-19T15:20:51;2.05;;;0.60;;
15990;SDS011;8100;50.994;4.538;2022-08-19T15:23:36;0.45;;;0.40;;
15990;SDS011;8100;50.994;4.538;2022-08-19T15:26:22;0.98;;;0.50;;
15990;SDS011;8100;50.994;4.538;2022-08-19T15:29:09;0.73;;;0.50;;
15990;SDS011;8100;50.994;4.538;2022-08-19T15:31:59;1.17;;;0.50;;
15990;SDS011;8100;50.994;4.538;2022-08-19T15:34:45;0.70;;;0.70;;
15990;SDS011;8100;50.994;4.538;2022-08-19T15:37:33;1.63;;;0.90;;
15990;SDS011;8100;50.994;4.538;2022-08-19T15:40:19;0.80;;;0.65;;
15990;SDS011;8100;50.994;4.538;2022-08-19T15:43:07;2.25;;;0.60;;
15990;SDS011;8100;50.994;4.538;2022-08-19T15:45:55;0.80;;;0.50;;
15990;SDS011;8100;50.994;4.538;2022-08-19T15:48:43;1.75;;;0.55;;
15990;SDS011;8100;50.994;4.538;2022-08-19T15:51:13;0.73;;;0.57;;
15990;SDS011;8100;50.994;4.538;2022-08-19T15:53:58;0.77;;;0.60;;
15990;SDS011;8100;50.994;4.538;2022-08-19T15:56:46;0.80;;;0.63;;
15990;SDS011;8100;50.994;4.538;2022-08-19T16:00:00;2.00;;;0.75;;
15990;SDS011;8100;50.994;4.538;2022-08-19T16:03:04;0.68;;;0.68;;
15990;SDS011;8100;50.994;4.538;2022-08-19T16:06:08;0.60;;;0.57;;
15990;SDS011;8100;50.994;4.538;2022-08-19T16:09:12;1.38;;;0.77;;
15990;SDS011;8100;50.994;4.538;2022-08-19T16:12:02;0.52;;;0.50;;
15990;SDS011;8100;50.994;4.538;2022-08-19T16:14:31;3.83;;;0.70;;
15990;SDS011;8100;50.994;4.538;2022-08-19T16:17:02;2.28;;;0.60;;
15990;SDS011;8100;50.994;4.538;2022-08-19T16:19:49;1.08;;;0.40;;
15990;SDS011;8100;50.994;4.538;2022-08-19T16:22:18;0.90;;;0.60;;
15990;SDS011;8100;50.994;4.538;2022-08-19T16:25:07;0.63;;;0.40;;
15990;SDS011;8100;50.994;4.538;2022-08-19T16:27:34;0.70;;;0.60;;
15990;SDS011;8100;50.994;4.538;2022-08-19T16:30:02;1.60;;;0.80;;
15990;SDS011;8100;50.994;4.538;2022-08-19T16:32:48;1.38;;;0.70;;
15990;SDS011;8100;50.994;4.538;2022-08-19T16:35:33;0.90;;;0.50;;
15990;SDS011;8100;50.994;4.538;2022-08-19T16:38:23;1.08;;;0.63;;
15990;SDS011;8100;50.994;4.538;2022-08-19T16:41:08;0.60;;;0.60;;
15990;SDS011;8100;50.994;4.538;2022-08-19T16:43:56;0.88;;;0.60;;
15990;SDS011;8100;50.994;4.538;2022-08-19T16:46:45;2.67;;;1.10;;
15990;SDS011;8100;50.994;4.538;2022-08-19T16:49:32;1.70;;;0.90;;
15990;SDS011;8100;50.994;4.538;2022-08-19T16:52:19;2.75;;;0.80;;
15990;SDS011;8100;50.994;4.538;2022-08-19T16:55:09;1.10;;;0.80;;